sensor_id;sensor_type;location;lat;lon;timestamp;P1;durP1;ratioP1;P2;durP2;ratioP2
58196;SDS011;43999;51.660;5.616;2023-08-06T00:01:17;6.65;;;4.22;;
58196;SDS011;43999;51.660;5.616;2023-08-06T00:03:48;7.60;;;4.47;;
58196;SDS011;43999;51.660;5.616;2023-08-06T00:06:15;7.32;;;4.50;;
58196;SDS011;43999;51.660;5.616;2023-08-06T00:08:42;5.53;;;4.30;;
58196;SDS011;43999;51.660;5.616;2023-08-06T00:11:10;5.05;;;4.50;;
58196;SDS011;43999;51.660;5.616;2023-08-06T00:13:37;5.15;;;4.65;;
58196;SDS011;43999;51.660;5.616;2023-08-06T00:16:08;6.43;;;5.78;;
58196;SDS011;43999;51.660;5.616;2023-08-06T00:18:40;5.07;;;4.45;;
58196;SDS011;43999;51.660;5.616;2023-08-06T00:21:07;5.38;;;4.35;;
58196;SDS011;43999;51.660;5.616;2023-08-06T00:23:35;7.13;;;4.85;;
58196;SDS011;43999;51.660;5.616;2023-08-06T00:26:02;6.22;;;5.43;;
58196;SDS011;43999;51.660;5.616;2023-08-06T00:28:29;6.05;;;4.57;;
58196;SDS011;43999;51.660;5.616;2023-08-06T00:30:57;9.20;;;4.68;;
58196;SDS011;43999;51.660;5.616;2023-08-06T00:33:25;6.53;;;5.28;;
58196;SDS011;43999;51.660;5.616;2023-08-06T00:35:52;6.43;;;5.22;;
58196;SDS011;43999;51.660;5.616;2023-08-06T00:38:19;6.03;;;5.43;;
58196;SDS011;43999;51.660;5.616;2023-08-06T00:40:47;5.60;;;5.07;;
58196;SDS011;43999;51.660;5.616;2023-08-06T00:43:15;5.80;;;5.30;;
58196;SDS011;43999;51.660;5.616;2023-08-06T00:45:42;6.57;;;4.90;;
58196;SDS011;43999;51.660;5.616;2023-08-06T00:48:10;5.90;;;4.95;;
58196;SDS011;43999;51.660;5.616;2023-08-06T00:50:38;9.70;;;6.32;;
58196;SDS011;43999;51.660;5.616;2023-08-06T00:53:06;6.95;;;5.20;;
58196;SDS011;43999;51.660;5.616;2023-08-06T00:55:33;5.78;;;4.65;;
58196;SDS011;43999;51.660;5.616;2023-08-06T00:58:01;6.07;;;5.47;;
58196;SDS011;43999;51.660;5.616;2023-08-06T01:00:29;5.72;;;4.68;;
58196;SDS011;43999;51.660;5.616;2023-08-06T01:02:56;6.88;;;5.22;;
58196;SDS011;43999;51.660;5.616;2023-08-06T01:05:24;5.68;;;5.07;;
58196;SDS011;43999;51.660;5.616;2023-08-06T01:11:38;5.70;;;5.00;;
58196;SDS011;43999;51.660;5.616;2023-08-06T01:14:26;8.00;;;5.40;;
58196;SDS011;43999;51.660;5.616;2023-08-06T01:17:20;5.63;;;5.13;;
58196;SDS011;43999;51.660;5.616;2023-08-06T01:19:50;5.28;;;4.40;;
58196;SDS011;43999;51.660;5.616;2023-08-06T01:22:17;6.68;;;4.78;;
58196;SDS011;43999;51.660;5.616;2023-08-06T01:24:46;6.20;;;4.47;;
58196;SDS011;43999;51.660;5.616;2023-08-06T01:27:22;7.68;;;5.43;;
58196;SDS011;43999;51.660;5.616;2023-08-06T01:30:29;6.65;;;4.75;;
58196;SDS011;43999;51.660;5.616;2023-08-06T01:33:04;5.38;;;4.22;;
58196;SDS011;43999;51.660;5.616;2023-08-06T01:35:35;6.20;;;4.45;;
58196;SDS011;43999;51.660;5.616;2023-08-06T01:38:05;5.25;;;4.75;;
58196;SDS011;43999;51.660;5.616;2023-08-06T01:40:32;6.95;;;5.55;;
58196;SDS011;43999;51.660;5.616;2023-08-06T01:43:01;5.88;;;4.85;;
58196;SDS011;43999;51.660;5.616;2023-08-06T01:45:29;5.95;;;4.80;;
58196;SDS011;43999;51.660;5.616;2023-08-06T01:47:56;7.53;;;5.85;;
58196;SDS011;43999;51.660;5.616;2023-08-06T01:50:24;6.15;;;5.55;;
58196;SDS011;43999;51.660;5.616;2023-08-06T01:52:51;7.63;;;5.78;;
58196;SDS011;43999;51.660;5.616;2023-08-06T01:55:18;6.95;;;5.88;;
58196;SDS011;43999;51.660;5.616;2023-08-06T01:57:46;6.88;;;5.35;;
58196;SDS011;43999;51.660;5.616;2023-08-06T02:00:13;7.32;;;5.18;;
58196;SDS011;43999;51.660;5.616;2023-08-06T02:02:40;7.78;;;5.78;;
58196;SDS011;43999;51.660;5.616;2023-08-06T02:05:08;7.97;;;5.15;;
58196;SDS011;43999;51.660;5.616;2023-08-06T02:07:38;6.63;;;4.75;;
58196;SDS011;43999;51.660;5.616;2023-08-06T02:10:06;6.40;;;5.40;;
58196;SDS011;43999;51.660;5.616;2023-08-06T02:12:34;7.15;;;6.07;;
58196;SDS011;43999;51.660;5.616;2023-08-06T02:15:03;7.05;;;5.47;;
58196;SDS011;43999;51.660;5.616;2023-08-06T02:17:31;6.95;;;5.80;;
58196;SDS011;43999;51.660;5.616;2023-08-06T02:19:59;6.82;;;5.38;;
58196;SDS011;43999;51.660;5.616;2023-08-06T02:22:27;7.43;;;5.63;;
58196;SDS011;43999;51.660;5.616;2023-08-06T02:24:54;6.82;;;5.15;;
58196;SDS011;43999;51.660;5.616;2023-08-06T02:27:22;7.68;;;5.03;;
58196;SDS011;43999;51.660;5.616;2023-08-06T02:29:49;6.55;;;5.50;;
58196;SDS011;43999;51.660;5.616;2023-08-06T02:32:17;10.18;;;6.15;;
58196;SDS011;43999;51.660;5.616;2023-08-06T02:34:44;6.18;;;5.55;;
58196;SDS011;43999;51.660;5.616;2023-08-06T02:37:12;11.20;;;5.95;;
58196;SDS011;43999;51.660;5.616;2023-08-06T02:39:39;7.82;;;6.20;;
58196;SDS011;43999;51.660;5.616;2023-08-06T02:42:07;7.40;;;6.07;;
58196;SDS011;43999;51.660;5.616;2023-08-06T02:44:35;6.07;;;4.90;;
58196;SDS011;43999;51.660;5.616;2023-08-06T02:47:03;5.93;;;5.22;;
58196;SDS011;43999;51.660;5.616;2023-08-06T02:49:31;6.05;;;4.47;;
58196;SDS011;43999;51.660;5.616;2023-08-06T02:51:59;8.05;;;5.35;;
58196;SDS011;43999;51.660;5.616;2023-08-06T02:54:26;7.32;;;5.25;;
58196;SDS011;43999;51.660;5.616;2023-08-06T02:56:54;9.75;;;5.55;;
58196;SDS011;43999;51.660;5.616;2023-08-06T02:59:26;7.28;;;5.32;;
58196;SDS011;43999;51.660;5.616;2023-08-06T03:02:19;7.07;;;5.70;;
58196;SDS011;43999;51.660;5.616;2023-08-06T03:05:12;8.73;;;5.97;;
58196;SDS011;43999;51.660;5.616;2023-08-06T03:07:44;6.43;;;5.65;;
58196;SDS011;43999;51.660;5.616;2023-08-06T03:10:20;5.55;;;5.05;;
58196;SDS011;43999;51.660;5.616;2023-08-06T03:12:50;6.90;;;5.25;;
58196;SDS011;43999;51.660;5.616;2023-08-06T03:15:18;6.50;;;5.53;;
58196;SDS011;43999;51.660;5.616;2023-08-06T03:17:46;7.07;;;5.13;;
58196;SDS011;43999;51.660;5.616;2023-08-06T03:20:17;8.25;;;5.53;;
58196;SDS011;43999;51.660;5.616;2023-08-06T03:22:45;7.60;;;5.47;;
58196;SDS011;43999;51.660;5.616;2023-08-06T03:25:12;7.97;;;6.43;;
58196;SDS011;43999;51.660;5.616;2023-08-06T03:27:43;7.03;;;6.00;;
58196;SDS011;43999;51.660;5.616;2023-08-06T03:30:13;6.63;;;4.65;;
58196;SDS011;43999;51.660;5.616;2023-08-06T03:32:41;6.97;;;5.32;;
58196;SDS011;43999;51.660;5.616;2023-08-06T03:35:09;6.60;;;5.75;;
58196;SDS011;43999;51.660;5.616;2023-08-06T03:37:36;8.55;;;6.07;;
58196;SDS011;43999;51.660;5.616;2023-08-06T03:40:05;7.00;;;6.30;;
58196;SDS011;43999;51.660;5.616;2023-08-06T03:42:34;7.55;;;6.20;;
58196;SDS011;43999;51.660;5.616;2023-08-06T03:45:01;7.85;;;7.05;;
58196;SDS011;43999;51.660;5.616;2023-08-06T03:47:30;7.63;;;5.82;;
58196;SDS011;43999;51.660;5.616;2023-08-06T03:49:57;8.27;;;7.10;;
58196;SDS011;43999;51.660;5.616;2023-08-06T03:52:25;7.88;;;6.90;;
58196;SDS011;43999;51.660;5.616;2023-08-06T03:54:52;6.88;;;5.57;;
58196;SDS011;43999;51.660;5.616;2023-08-06T03:57:19;7.43;;;6.57;;
58196;SDS011;43999;51.660;5.616;2023-08-06T03:59:47;11.65;;;9.38;;
58196;SDS011;43999;51.660;5.616;2023-08-06T04:02:22;8.10;;;7.30;;
58196;SDS011;43999;51.660;5.616;2023-08-06T04:04:50;9.05;;;6.95;;
58196;SDS011;43999;51.660;5.616;2023-08-06T04:07:20;8.60;;;6.22;;
58196;SDS011;43999;51.660;5.616;2023-08-06T04:09:58;9.98;;;7.65;;
58196;SDS011;43999;51.660;5.616;2023-08-06T04:12:29;9.18;;;7.15;;
58196;SDS011;43999;51.660;5.616;2023-08-06T04:15:02;7.60;;;6.78;;
58196;SDS011;43999;51.660;5.616;2023-08-06T04:17:31;7.47;;;6.68;;
58196;SDS011;43999;51.660;5.616;2023-08-06T04:19:58;8.85;;;6.20;;
58196;SDS011;43999;51.660;5.616;2023-08-06T04:22:26;7.45;;;6.60;;
58196;SDS011;43999;51.660;5.616;2023-08-06T04:24:53;9.07;;;7.05;;
58196;SDS011;43999;51.660;5.616;2023-08-06T04:27:21;7.50;;;6.20;;
58196;SDS011;43999;51.660;5.616;2023-08-06T04:29:48;9.45;;;6.75;;
58196;SDS011;43999;51.660;5.616;2023-08-06T04:32:16;8.07;;;6.35;;
58196;SDS011;43999;51.660;5.616;2023-08-06T04:34:49;9.60;;;8.75;;
58196;SDS011;43999;51.660;5.616;2023-08-06T04:37:16;9.35;;;6.80;;
58196;SDS011;43999;51.660;5.616;2023-08-06T04:39:44;9.63;;;7.30;;
58196;SDS011;43999;51.660;5.616;2023-08-06T04:42:11;10.90;;;7.28;;
58196;SDS011;43999;51.660;5.616;2023-08-06T04:44:38;12.07;;;9.20;;
58196;SDS011;43999;51.660;5.616;2023-08-06T04:47:07;8.88;;;7.93;;
58196;SDS011;43999;51.660;5.616;2023-08-06T04:49:34;9.73;;;8.27;;
58196;SDS011;43999;51.660;5.616;2023-08-06T04:52:01;8.90;;;8.02;;
58196;SDS011;43999;51.660;5.616;2023-08-06T04:54:29;9.13;;;7.80;;
58196;SDS011;43999;51.660;5.616;2023-08-06T04:56:57;8.32;;;7.47;;
58196;SDS011;43999;51.660;5.616;2023-08-06T04:59:24;9.02;;;8.23;;
58196;SDS011;43999;51.660;5.616;2023-08-06T05:01:52;9.02;;;8.18;;
58196;SDS011;43999;51.660;5.616;2023-08-06T05:04:19;10.00;;;8.98;;
58196;SDS011;43999;51.660;5.616;2023-08-06T05:06:47;9.63;;;7.97;;
58196;SDS011;43999;51.660;5.616;2023-08-06T05:09:15;10.85;;;9.77;;
58196;SDS011;43999;51.660;5.616;2023-08-06T05:11:42;10.63;;;9.32;;
58196;SDS011;43999;51.660;5.616;2023-08-06T05:14:09;9.05;;;8.15;;
58196;SDS011;43999;51.660;5.616;2023-08-06T05:16:37;8.40;;;7.60;;
58196;SDS011;43999;51.660;5.616;2023-08-06T05:19:04;16.05;;;13.77;;
58196;SDS011;43999;51.660;5.616;2023-08-06T05:21:31;13.85;;;9.13;;
58196;SDS011;43999;51.660;5.616;2023-08-06T05:23:59;10.80;;;9.63;;
58196;SDS011;43999;51.660;5.616;2023-08-06T05:26:26;10.10;;;8.88;;
58196;SDS011;43999;51.660;5.616;2023-08-06T05:28:53;12.00;;;10.82;;
58196;SDS011;43999;51.660;5.616;2023-08-06T05:31:21;12.63;;;11.43;;
58196;SDS011;43999;51.660;5.616;2023-08-06T05:33:48;11.57;;;9.95;;
58196;SDS011;43999;51.660;5.616;2023-08-06T05:36:16;11.10;;;9.98;;
58196;SDS011;43999;51.660;5.616;2023-08-06T05:38:44;12.23;;;11.15;;
58196;SDS011;43999;51.660;5.616;2023-08-06T05:41:11;11.77;;;10.50;;
58196;SDS011;43999;51.660;5.616;2023-08-06T05:43:39;12.20;;;9.85;;
58196;SDS011;43999;51.660;5.616;2023-08-06T05:46:06;12.35;;;11.15;;
58196;SDS011;43999;51.660;5.616;2023-08-06T05:48:34;14.48;;;11.63;;
58196;SDS011;43999;51.660;5.616;2023-08-06T05:51:01;10.88;;;9.88;;
58196;SDS011;43999;51.660;5.616;2023-08-06T05:53:29;9.45;;;7.80;;
58196;SDS011;43999;51.660;5.616;2023-08-06T05:55:56;11.25;;;10.15;;
58196;SDS011;43999;51.660;5.616;2023-08-06T05:58:24;13.00;;;11.90;;
58196;SDS011;43999;51.660;5.616;2023-08-06T06:00:52;13.90;;;12.45;;
58196;SDS011;43999;51.660;5.616;2023-08-06T06:03:20;11.88;;;10.77;;
58196;SDS011;43999;51.660;5.616;2023-08-06T06:05:47;13.23;;;11.93;;
58196;SDS011;43999;51.660;5.616;2023-08-06T06:08:15;11.50;;;10.32;;
58196;SDS011;43999;51.660;5.616;2023-08-06T06:10:42;11.63;;;10.45;;
58196;SDS011;43999;51.660;5.616;2023-08-06T06:13:09;12.93;;;11.70;;
58196;SDS011;43999;51.660;5.616;2023-08-06T06:15:37;11.73;;;10.50;;
58196;SDS011;43999;51.660;5.616;2023-08-06T06:18:04;9.15;;;8.07;;
58196;SDS011;43999;51.660;5.616;2023-08-06T06:20:32;11.25;;;9.77;;
58196;SDS011;43999;51.660;5.616;2023-08-06T06:23:00;10.48;;;9.38;;
58196;SDS011;43999;51.660;5.616;2023-08-06T06:25:27;12.40;;;11.30;;
58196;SDS011;43999;51.660;5.616;2023-08-06T06:27:55;11.00;;;9.43;;
58196;SDS011;43999;51.660;5.616;2023-08-06T06:30:22;11.60;;;9.50;;
58196;SDS011;43999;51.660;5.616;2023-08-06T06:32:50;9.95;;;9.05;;
58196;SDS011;43999;51.660;5.616;2023-08-06T06:35:17;11.50;;;10.15;;
58196;SDS011;43999;51.660;5.616;2023-08-06T06:37:45;10.38;;;9.27;;
58196;SDS011;43999;51.660;5.616;2023-08-06T06:40:12;9.90;;;8.98;;
58196;SDS011;43999;51.660;5.616;2023-08-06T06:42:40;9.77;;;8.98;;
58196;SDS011;43999;51.660;5.616;2023-08-06T06:45:08;10.32;;;9.32;;
58196;SDS011;43999;51.660;5.616;2023-08-06T06:47:36;11.23;;;10.18;;
58196;SDS011;43999;51.660;5.616;2023-08-06T06:50:04;11.30;;;9.13;;
58196;SDS011;43999;51.660;5.616;2023-08-06T06:52:32;12.35;;;10.05;;
58196;SDS011;43999;51.660;5.616;2023-08-06T06:55:00;11.15;;;10.05;;
58196;SDS011;43999;51.660;5.616;2023-08-06T06:57:28;12.23;;;10.10;;
58196;SDS011;43999;51.660;5.616;2023-08-06T06:59:55;12.45;;;11.32;;
58196;SDS011;43999;51.660;5.616;2023-08-06T07:02:23;15.02;;;13.50;;
58196;SDS011;43999;51.660;5.616;2023-08-06T07:04:50;13.15;;;11.82;;
58196;SDS011;43999;51.660;5.616;2023-08-06T07:07:18;12.52;;;11.05;;
58196;SDS011;43999;51.660;5.616;2023-08-06T07:09:45;12.98;;;11.68;;
58196;SDS011;43999;51.660;5.616;2023-08-06T07:12:12;14.13;;;12.82;;
58196;SDS011;43999;51.660;5.616;2023-08-06T07:14:40;14.02;;;12.63;;
58196;SDS011;43999;51.660;5.616;2023-08-06T07:17:07;11.10;;;10.07;;
58196;SDS011;43999;51.660;5.616;2023-08-06T07:19:35;13.63;;;12.43;;
58196;SDS011;43999;51.660;5.616;2023-08-06T07:22:02;13.05;;;11.70;;
58196;SDS011;43999;51.660;5.616;2023-08-06T07:24:30;14.82;;;12.82;;
58196;SDS011;43999;51.660;5.616;2023-08-06T07:26:58;12.52;;;11.43;;
58196;SDS011;43999;51.660;5.616;2023-08-06T07:29:25;14.25;;;12.70;;
58196;SDS011;43999;51.660;5.616;2023-08-06T07:31:52;13.90;;;12.60;;
58196;SDS011;43999;51.660;5.616;2023-08-06T07:34:22;16.48;;;13.35;;
58196;SDS011;43999;51.660;5.616;2023-08-06T07:36:49;13.48;;;12.18;;
58196;SDS011;43999;51.660;5.616;2023-08-06T07:39:16;15.48;;;14.18;;
58196;SDS011;43999;51.660;5.616;2023-08-06T07:41:44;13.30;;;12.00;;
58196;SDS011;43999;51.660;5.616;2023-08-06T07:44:12;17.67;;;15.93;;
58196;SDS011;43999;51.660;5.616;2023-08-06T07:46:39;14.32;;;13.13;;
58196;SDS011;43999;51.660;5.616;2023-08-06T07:49:08;14.23;;;12.98;;
58196;SDS011;43999;51.660;5.616;2023-08-06T07:51:37;15.52;;;14.13;;
58196;SDS011;43999;51.660;5.616;2023-08-06T07:54:05;14.10;;;12.75;;
58196;SDS011;43999;51.660;5.616;2023-08-06T07:56:33;16.35;;;14.95;;
58196;SDS011;43999;51.660;5.616;2023-08-06T07:59:03;16.08;;;14.60;;
58196;SDS011;43999;51.660;5.616;2023-08-06T08:01:30;8.10;;;7.30;;
58196;SDS011;43999;51.660;5.616;2023-08-06T08:03:58;8.60;;;7.68;;
58196;SDS011;43999;51.660;5.616;2023-08-06T08:06:26;8.80;;;7.43;;
58196;SDS011;43999;51.660;5.616;2023-08-06T08:08:53;10.07;;;9.13;;
58196;SDS011;43999;51.660;5.616;2023-08-06T08:11:21;5.10;;;4.57;;
58196;SDS011;43999;51.660;5.616;2023-08-06T08:13:49;4.50;;;3.25;;
58196;SDS011;43999;51.660;5.616;2023-08-06T08:16:16;2.72;;;2.13;;
58196;SDS011;43999;51.660;5.616;2023-08-06T08:18:44;1.83;;;1.48;;
58196;SDS011;43999;51.660;5.616;2023-08-06T08:21:11;2.10;;;1.80;;
58196;SDS011;43999;51.660;5.616;2023-08-06T08:23:38;3.45;;;3.10;;
58196;SDS011;43999;51.660;5.616;2023-08-06T08:26:08;3.33;;;2.95;;
58196;SDS011;43999;51.660;5.616;2023-08-06T08:28:36;5.22;;;4.72;;
58196;SDS011;43999;51.660;5.616;2023-08-06T08:31:03;7.95;;;5.13;;
58196;SDS011;43999;51.660;5.616;2023-08-06T08:33:35;5.97;;;5.22;;
58196;SDS011;43999;51.660;5.616;2023-08-06T08:36:02;7.88;;;5.82;;
58196;SDS011;43999;51.660;5.616;2023-08-06T08:38:32;7.35;;;6.65;;
58196;SDS011;43999;51.660;5.616;2023-08-06T08:40:59;7.90;;;6.72;;
58196;SDS011;43999;51.660;5.616;2023-08-06T08:43:26;8.55;;;5.40;;
58196;SDS011;43999;51.660;5.616;2023-08-06T08:45:56;8.15;;;7.15;;
58196;SDS011;43999;51.660;5.616;2023-08-06T08:48:25;8.20;;;7.40;;
58196;SDS011;43999;51.660;5.616;2023-08-06T08:50:54;8.95;;;8.05;;
58196;SDS011;43999;51.660;5.616;2023-08-06T08:53:23;9.93;;;8.95;;
58196;SDS011;43999;51.660;5.616;2023-08-06T08:55:53;10.18;;;9.18;;
58196;SDS011;43999;51.660;5.616;2023-08-06T08:58:22;10.32;;;9.32;;
58196;SDS011;43999;51.660;5.616;2023-08-06T09:00:49;11.50;;;10.40;;
58196;SDS011;43999;51.660;5.616;2023-08-06T09:03:18;11.90;;;10.32;;
58196;SDS011;43999;51.660;5.616;2023-08-06T09:05:48;11.73;;;10.48;;
58196;SDS011;43999;51.660;5.616;2023-08-06T09:08:23;12.90;;;11.60;;
58196;SDS011;43999;51.660;5.616;2023-08-06T09:11:04;13.75;;;12.45;;
58196;SDS011;43999;51.660;5.616;2023-08-06T09:13:37;14.25;;;12.75;;
58196;SDS011;43999;51.660;5.616;2023-08-06T09:16:05;14.20;;;12.68;;
58196;SDS011;43999;51.660;5.616;2023-08-06T09:18:33;18.25;;;15.50;;
58196;SDS011;43999;51.660;5.616;2023-08-06T09:21:00;13.45;;;12.18;;
58196;SDS011;43999;51.660;5.616;2023-08-06T09:23:28;13.43;;;11.25;;
58196;SDS011;43999;51.660;5.616;2023-08-06T09:26:00;9.77;;;8.75;;
58196;SDS011;43999;51.660;5.616;2023-08-06T09:28:36;12.23;;;9.43;;
58196;SDS011;43999;51.660;5.616;2023-08-06T09:31:09;13.32;;;9.02;;
58196;SDS011;43999;51.660;5.616;2023-08-06T09:33:37;10.93;;;9.77;;
58196;SDS011;43999;51.660;5.616;2023-08-06T09:36:11;12.40;;;10.27;;
58196;SDS011;43999;51.660;5.616;2023-08-06T09:38:39;10.55;;;9.05;;
58196;SDS011;43999;51.660;5.616;2023-08-06T09:41:08;11.43;;;9.90;;
58196;SDS011;43999;51.660;5.616;2023-08-06T09:43:44;12.82;;;8.40;;
58196;SDS011;43999;51.660;5.616;2023-08-06T09:46:12;8.98;;;7.97;;
58196;SDS011;43999;51.660;5.616;2023-08-06T09:48:46;11.65;;;8.88;;
58196;SDS011;43999;51.660;5.616;2023-08-06T09:51:16;13.38;;;8.25;;
58196;SDS011;43999;51.660;5.616;2023-08-06T09:53:46;9.88;;;7.28;;
58196;SDS011;43999;51.660;5.616;2023-08-06T09:56:15;9.43;;;7.40;;
58196;SDS011;43999;51.660;5.616;2023-08-06T09:58:44;10.35;;;7.53;;
58196;SDS011;43999;51.660;5.616;2023-08-06T10:01:16;10.63;;;6.75;;
58196;SDS011;43999;51.660;5.616;2023-08-06T10:03:45;8.02;;;6.00;;
58196;SDS011;43999;51.660;5.616;2023-08-06T10:06:15;9.68;;;6.47;;
58196;SDS011;43999;51.660;5.616;2023-08-06T10:08:44;7.75;;;6.35;;
58196;SDS011;43999;51.660;5.616;2023-08-06T10:11:11;11.27;;;6.90;;
58196;SDS011;43999;51.660;5.616;2023-08-06T10:13:41;8.68;;;6.80;;
58196;SDS011;43999;51.660;5.616;2023-08-06T10:16:09;8.02;;;6.30;;
58196;SDS011;43999;51.660;5.616;2023-08-06T10:18:37;8.98;;;5.90;;
58196;SDS011;43999;51.660;5.616;2023-08-06T10:21:09;11.38;;;7.10;;
58196;SDS011;43999;51.660;5.616;2023-08-06T10:23:39;8.02;;;6.07;;
58196;SDS011;43999;51.660;5.616;2023-08-06T10:26:08;9.18;;;6.38;;
58196;SDS011;43999;51.660;5.616;2023-08-06T10:28:39;10.63;;;7.75;;
58196;SDS011;43999;51.660;5.616;2023-08-06T10:31:06;6.53;;;5.93;;
58196;SDS011;43999;51.660;5.616;2023-08-06T10:33:41;11.15;;;7.22;;
58196;SDS011;43999;51.660;5.616;2023-08-06T10:36:11;8.60;;;5.47;;
58196;SDS011;43999;51.660;5.616;2023-08-06T10:38:44;10.10;;;7.05;;
58196;SDS011;43999;51.660;5.616;2023-08-06T10:44:05;10.93;;;6.35;;
58196;SDS011;43999;51.660;5.616;2023-08-06T10:46:37;9.13;;;6.10;;
58196;SDS011;43999;51.660;5.616;2023-08-06T10:49:05;12.00;;;7.25;;
58196;SDS011;43999;51.660;5.616;2023-08-06T10:51:34;7.47;;;6.78;;
58196;SDS011;43999;51.660;5.616;2023-08-06T10:54:03;9.95;;;7.15;;
58196;SDS011;43999;51.660;5.616;2023-08-06T10:56:31;13.82;;;7.50;;
58196;SDS011;43999;51.660;5.616;2023-08-06T10:59:08;9.35;;;6.68;;
58196;SDS011;43999;51.660;5.616;2023-08-06T11:01:37;8.85;;;6.35;;
58196;SDS011;43999;51.660;5.616;2023-08-06T11:04:05;8.73;;;6.65;;
58196;SDS011;43999;51.660;5.616;2023-08-06T11:06:33;6.55;;;5.57;;
58196;SDS011;43999;51.660;5.616;2023-08-06T11:09:01;10.02;;;6.57;;
58196;SDS011;43999;51.660;5.616;2023-08-06T11:11:29;6.63;;;5.32;;
58196;SDS011;43999;51.660;5.616;2023-08-06T11:13:57;7.45;;;5.60;;
58196;SDS011;43999;51.660;5.616;2023-08-06T11:16:24;7.80;;;5.47;;
58196;SDS011;43999;51.660;5.616;2023-08-06T11:18:53;9.88;;;6.47;;
58196;SDS011;43999;51.660;5.616;2023-08-06T11:21:23;8.93;;;6.40;;
58196;SDS011;43999;51.660;5.616;2023-08-06T11:23:51;8.93;;;6.28;;
58196;SDS011;43999;51.660;5.616;2023-08-06T11:26:20;9.63;;;5.75;;
58196;SDS011;43999;51.660;5.616;2023-08-06T11:28:50;7.50;;;6.30;;
58196;SDS011;43999;51.660;5.616;2023-08-06T11:31:18;10.32;;;6.35;;
58196;SDS011;43999;51.660;5.616;2023-08-06T11:33:50;8.85;;;6.75;;
58196;SDS011;43999;51.660;5.616;2023-08-06T11:36:32;10.00;;;7.47;;
58196;SDS011;43999;51.660;5.616;2023-08-06T11:39:06;7.28;;;6.57;;
58196;SDS011;43999;51.660;5.616;2023-08-06T11:41:36;9.00;;;5.78;;
58196;SDS011;43999;51.660;5.616;2023-08-06T11:44:07;7.85;;;6.47;;
58196;SDS011;43999;51.660;5.616;2023-08-06T11:46:55;8.73;;;6.00;;
58196;SDS011;43999;51.660;5.616;2023-08-06T11:52:19;8.73;;;5.50;;
58196;SDS011;43999;51.660;5.616;2023-08-06T11:55:04;12.63;;;6.57;;
58196;SDS011;43999;51.660;5.616;2023-08-06T11:57:38;6.13;;;5.10;;
58196;SDS011;43999;51.660;5.616;2023-08-06T12:00:11;7.03;;;6.32;;
58196;SDS011;43999;51.660;5.616;2023-08-06T12:02:44;9.90;;;6.25;;
58196;SDS011;43999;51.660;5.616;2023-08-06T12:05:14;10.10;;;5.90;;
58196;SDS011;43999;51.660;5.616;2023-08-06T12:10:27;6.80;;;5.68;;
58196;SDS011;43999;51.660;5.616;2023-08-06T12:12:57;6.97;;;6.15;;
58196;SDS011;43999;51.660;5.616;2023-08-06T12:15:26;9.90;;;6.38;;
58196;SDS011;43999;51.660;5.616;2023-08-06T12:17:55;8.10;;;4.80;;
58196;SDS011;43999;51.660;5.616;2023-08-06T12:20:22;5.57;;;4.35;;
58196;SDS011;43999;51.660;5.616;2023-08-06T12:22:50;8.70;;;5.25;;
58196;SDS011;43999;51.660;5.616;2023-08-06T12:25:18;8.43;;;5.45;;
58196;SDS011;43999;51.660;5.616;2023-08-06T12:27:46;8.27;;;4.80;;
58196;SDS011;43999;51.660;5.616;2023-08-06T12:30:15;6.18;;;4.53;;
58196;SDS011;43999;51.660;5.616;2023-08-06T12:32:42;8.20;;;4.93;;
58196;SDS011;43999;51.660;5.616;2023-08-06T12:35:10;6.82;;;4.68;;
58196;SDS011;43999;51.660;5.616;2023-08-06T12:37:38;7.30;;;5.25;;
58196;SDS011;43999;51.660;5.616;2023-08-06T12:40:06;7.47;;;5.88;;
58196;SDS011;43999;51.660;5.616;2023-08-06T12:42:54;7.85;;;5.82;;
58196;SDS011;43999;51.660;5.616;2023-08-06T12:45:21;5.78;;;5.00;;
58196;SDS011;43999;51.660;5.616;2023-08-06T12:47:49;7.30;;;5.40;;
58196;SDS011;43999;51.660;5.616;2023-08-06T12:50:17;6.60;;;4.93;;
58196;SDS011;43999;51.660;5.616;2023-08-06T12:52:45;7.45;;;5.80;;
58196;SDS011;43999;51.660;5.616;2023-08-06T12:55:12;7.63;;;5.38;;
58196;SDS011;43999;51.660;5.616;2023-08-06T12:57:39;6.43;;;5.28;;
58196;SDS011;43999;51.660;5.616;2023-08-06T13:00:10;9.82;;;6.82;;
58196;SDS011;43999;51.660;5.616;2023-08-06T13:02:38;8.38;;;6.22;;
58196;SDS011;43999;51.660;5.616;2023-08-06T13:05:07;9.25;;;7.57;;
58196;SDS011;43999;51.660;5.616;2023-08-06T13:07:36;11.88;;;6.85;;
58196;SDS011;43999;51.660;5.616;2023-08-06T13:10:06;7.57;;;6.70;;
58196;SDS011;43999;51.660;5.616;2023-08-06T13:12:34;9.38;;;7.25;;
58196;SDS011;43999;51.660;5.616;2023-08-06T13:15:01;9.25;;;6.38;;
58196;SDS011;43999;51.660;5.616;2023-08-06T13:17:29;8.65;;;6.60;;
58196;SDS011;43999;51.660;5.616;2023-08-06T13:19:57;12.65;;;8.07;;
58196;SDS011;43999;51.660;5.616;2023-08-06T13:22:24;13.68;;;7.25;;
58196;SDS011;43999;51.660;5.616;2023-08-06T13:24:53;9.18;;;6.18;;
58196;SDS011;43999;51.660;5.616;2023-08-06T13:27:20;9.15;;;6.30;;
58196;SDS011;43999;51.660;5.616;2023-08-06T13:29:48;10.70;;;6.63;;
58196;SDS011;43999;51.660;5.616;2023-08-06T13:32:16;9.93;;;7.38;;
58196;SDS011;43999;51.660;5.616;2023-08-06T13:34:43;6.65;;;4.05;;
58196;SDS011;43999;51.660;5.616;2023-08-06T13:37:11;5.05;;;3.33;;
58196;SDS011;43999;51.660;5.616;2023-08-06T13:39:38;7.60;;;3.97;;
58196;SDS011;43999;51.660;5.616;2023-08-06T13:42:06;7.63;;;3.25;;
58196;SDS011;43999;51.660;5.616;2023-08-06T13:44:33;4.57;;;3.75;;
58196;SDS011;43999;51.660;5.616;2023-08-06T13:47:02;4.38;;;2.70;;
58196;SDS011;43999;51.660;5.616;2023-08-06T13:49:30;5.20;;;3.05;;
58196;SDS011;43999;51.660;5.616;2023-08-06T13:51:57;7.70;;;3.83;;
58196;SDS011;43999;51.660;5.616;2023-08-06T13:54:41;5.20;;;4.20;;
58196;SDS011;43999;51.660;5.616;2023-08-06T13:57:08;5.28;;;3.17;;
58196;SDS011;43999;51.660;5.616;2023-08-06T13:59:36;6.72;;;3.53;;
58196;SDS011;43999;51.660;5.616;2023-08-06T14:02:04;6.55;;;3.97;;
58196;SDS011;43999;51.660;5.616;2023-08-06T14:04:32;5.45;;;3.17;;
58196;SDS011;43999;51.660;5.616;2023-08-06T14:07:01;7.18;;;3.60;;
58196;SDS011;43999;51.660;5.616;2023-08-06T14:09:29;5.72;;;3.63;;
58196;SDS011;43999;51.660;5.616;2023-08-06T14:11:57;5.28;;;4.00;;
58196;SDS011;43999;51.660;5.616;2023-08-06T14:14:24;5.40;;;3.17;;
58196;SDS011;43999;51.660;5.616;2023-08-06T14:16:53;6.97;;;3.83;;
58196;SDS011;43999;51.660;5.616;2023-08-06T14:19:22;6.35;;;3.97;;
58196;SDS011;43999;51.660;5.616;2023-08-06T14:21:49;5.53;;;3.45;;
58196;SDS011;43999;51.660;5.616;2023-08-06T14:24:18;5.20;;;4.35;;
58196;SDS011;43999;51.660;5.616;2023-08-06T14:26:45;5.80;;;3.47;;
58196;SDS011;43999;51.660;5.616;2023-08-06T14:29:13;5.35;;;3.85;;
58196;SDS011;43999;51.660;5.616;2023-08-06T14:31:40;6.63;;;3.78;;
58196;SDS011;43999;51.660;5.616;2023-08-06T14:34:08;6.75;;;3.83;;
58196;SDS011;43999;51.660;5.616;2023-08-06T14:36:36;5.70;;;3.63;;
58196;SDS011;43999;51.660;5.616;2023-08-06T14:39:03;7.15;;;4.53;;
58196;SDS011;43999;51.660;5.616;2023-08-06T14:41:31;6.65;;;3.90;;
58196;SDS011;43999;51.660;5.616;2023-08-06T14:43:58;5.85;;;3.78;;
58196;SDS011;43999;51.660;5.616;2023-08-06T14:46:26;5.00;;;4.20;;
58196;SDS011;43999;51.660;5.616;2023-08-06T14:48:53;6.90;;;3.65;;
58196;SDS011;43999;51.660;5.616;2023-08-06T14:51:21;5.32;;;4.50;;
58196;SDS011;43999;51.660;5.616;2023-08-06T14:53:49;6.03;;;4.70;;
58196;SDS011;43999;51.660;5.616;2023-08-06T14:56:17;6.13;;;4.10;;
58196;SDS011;43999;51.660;5.616;2023-08-06T14:58:44;6.25;;;4.55;;
58196;SDS011;43999;51.660;5.616;2023-08-06T15:01:13;6.65;;;4.55;;
58196;SDS011;43999;51.660;5.616;2023-08-06T15:03:41;5.63;;;4.28;;